createdAt,value
2018-03-24T00:00:06.729Z,15.77
2018-03-24T00:02:34.246Z,22.70
2018-03-24T00:05:01.804Z,14.83
2018-03-24T00:07:29.290Z,21.17
2018-03-24T00:09:56.811Z,21.53
2018-03-24T00:12:24.346Z,20.00
2018-03-24T00:14:52.815Z,14.77
2018-03-24T00:17:21.296Z,29.87
2018-03-24T00:19:49.801Z,18.30
2018-03-24T00:22:19.716Z,18.43
2018-03-24T00:24:47.310Z,19.77
2018-03-24T00:27:15.571Z,18.97
2018-03-24T00:29:43.114Z,21.53
2018-03-24T00:32:12.616Z,27.40
2018-03-24T00:34:40.164Z,21.10
2018-03-24T00:37:07.709Z,20.07
2018-03-24T00:39:35.267Z,23.03
2018-03-24T00:42:03.727Z,24.43
2018-03-24T00:44:32.141Z,21.53
2018-03-24T00:46:59.668Z,22.60
2018-03-24T00:49:27.193Z,28.67
2018-03-24T00:51:55.444Z,22.83
2018-03-24T00:54:22.934Z,21.50
2018-03-24T00:56:51.416Z,25.03
2018-03-24T00:59:18.913Z,19.97
2018-03-24T01:01:47.374Z,22.70
2018-03-24T01:04:14.926Z,17.73
2018-03-24T01:06:42.452Z,28.43
2018-03-24T01:09:10.722Z,17.87
2018-03-24T01:11:38.222Z,17.27
2018-03-24T01:14:05.742Z,19.60
2018-03-24T01:16:52.948Z,19.60
2018-03-24T01:22:02.519Z,13.13
2018-03-24T01:24:30.148Z,19.73
2018-03-24T01:26:57.731Z,17.33
2018-03-24T01:29:25.230Z,15.37
2018-03-24T01:31:53.686Z,15.33
2018-03-24T01:34:21.274Z,20.27
2018-03-24T01:36:48.820Z,18.50
2018-03-24T01:39:16.337Z,14.93
2018-03-24T01:41:43.945Z,19.13
2018-03-24T01:44:11.431Z,15.20
2018-03-24T01:46:39.755Z,17.03
2018-03-24T01:49:07.250Z,19.87
2018-03-24T01:51:34.750Z,18.73
2018-03-24T01:54:03.044Z,17.67
2018-03-24T01:56:30.656Z,16.10
2018-03-24T01:58:58.200Z,16.77
2018-03-24T02:01:25.776Z,19.40
2018-03-24T02:03:53.341Z,16.30
2018-03-24T02:06:20.835Z,17.47
2018-03-24T02:08:49.175Z,16.80
2018-03-24T02:11:16.690Z,18.00
2018-03-24T02:13:44.224Z,17.13
2018-03-24T02:16:13.686Z,17.83
2018-03-24T02:18:41.234Z,19.47
2018-03-24T02:21:08.778Z,18.23
2018-03-24T02:23:38.197Z,20.10
2018-03-24T02:26:07.439Z,17.97
2018-03-24T02:28:34.949Z,15.77
2018-03-24T02:31:03.400Z,23.33
2018-03-24T02:33:30.919Z,18.63
2018-03-24T02:35:58.463Z,16.73
2018-03-24T02:38:27.125Z,16.13
2018-03-24T02:40:56.587Z,19.33
2018-03-24T02:43:24.843Z,17.17
2018-03-24T02:45:52.387Z,20.43
2018-03-24T02:48:19.939Z,17.00
2018-03-24T02:50:48.340Z,18.30
2018-03-24T02:53:15.961Z,20.03
2018-03-24T02:55:43.578Z,21.90
2018-03-24T02:58:11.076Z,19.40
2018-03-24T03:00:38.594Z,19.73
2018-03-24T03:03:06.132Z,20.10
2018-03-24T03:05:33.719Z,21.30
2018-03-24T03:08:01.231Z,23.87
2018-03-24T03:10:28.761Z,33.43
2018-03-24T03:12:56.269Z,20.67
2018-03-24T03:15:23.855Z,24.13
2018-03-24T03:17:51.438Z,22.10
2018-03-24T03:20:19.008Z,20.67
2018-03-24T03:22:46.623Z,29.90
2018-03-24T03:25:14.165Z,24.77
2018-03-24T03:27:44.419Z,20.60
2018-03-24T03:30:17.671Z,22.50
2018-03-24T03:32:45.224Z,23.40
2018-03-24T03:35:12.796Z,35.83
2018-03-24T03:37:40.370Z,27.23
2018-03-24T03:40:08.868Z,23.60
2018-03-24T03:42:37.402Z,20.07
2018-03-24T03:45:04.929Z,21.20
2018-03-24T03:47:34.341Z,17.30
2018-03-24T03:50:01.920Z,24.93
2018-03-24T03:52:30.412Z,15.87
2018-03-24T03:54:58.898Z,20.20
2018-03-24T03:57:26.440Z,16.53
2018-03-24T03:59:53.944Z,22.00
2018-03-24T04:02:21.550Z,22.37
2018-03-24T04:04:49.916Z,16.77
2018-03-24T04:07:17.475Z,20.57
2018-03-24T04:09:44.985Z,19.67
2018-03-24T04:12:12.539Z,17.03
2018-03-24T04:14:41.942Z,18.53
2018-03-24T04:17:10.250Z,15.33
2018-03-24T04:19:37.744Z,16.17
2018-03-24T04:22:05.276Z,17.33
2018-03-24T04:24:32.887Z,15.70
2018-03-24T04:27:00.457Z,25.17
2018-03-24T04:29:28.003Z,23.83
2018-03-24T04:31:55.575Z,16.63
2018-03-24T04:34:23.114Z,17.13
2018-03-24T04:36:51.213Z,20.67
2018-03-24T04:39:18.732Z,21.23
2018-03-24T04:41:48.317Z,21.10
2018-03-24T04:44:16.624Z,19.57
2018-03-24T04:46:44.168Z,18.63
2018-03-24T04:49:11.697Z,21.67
2018-03-24T04:51:40.114Z,20.07
2018-03-24T04:54:08.446Z,21.93
2018-03-24T04:56:36.094Z,19.90
2018-03-24T04:59:03.595Z,19.90
2018-03-24T05:01:32.037Z,17.97
2018-03-24T05:03:59.591Z,18.77
2018-03-24T05:06:27.206Z,19.33
2018-03-24T05:08:54.760Z,18.10
2018-03-24T05:11:23.731Z,16.97
2018-03-24T05:13:51.303Z,17.60
2018-03-24T05:16:18.891Z,18.03
2018-03-24T05:18:46.995Z,15.73
2018-03-24T05:21:16.707Z,16.20
2018-03-24T05:23:44.260Z,17.10
2018-03-24T05:26:11.904Z,15.77
2018-03-24T05:31:39.145Z,17.57
2018-03-24T05:34:06.694Z,16.43
2018-03-24T05:36:34.352Z,14.30
2018-03-24T05:39:04.657Z,13.33
2018-03-24T05:41:34.101Z,14.40
2018-03-24T05:44:02.604Z,12.83
2018-03-24T05:46:30.104Z,16.40
2018-03-24T05:48:57.688Z,25.97
2018-03-24T05:51:26.209Z,12.80
2018-03-24T05:53:53.749Z,10.93
2018-03-24T05:56:22.045Z,12.87
2018-03-24T05:58:49.675Z,15.37
2018-03-24T06:01:17.262Z,27.13
2018-03-24T06:03:44.822Z,16.80
2018-03-24T06:06:13.163Z,11.93
2018-03-24T06:08:42.694Z,20.70
2018-03-24T06:11:10.273Z,16.07
2018-03-24T06:13:37.888Z,19.47
2018-03-24T06:16:05.474Z,9.67
2018-03-24T06:18:33.039Z,9.80
2018-03-24T06:21:00.613Z,10.40
2018-03-24T06:23:29.539Z,12.33
2018-03-24T06:25:57.872Z,10.00
2018-03-24T06:28:25.404Z,12.30
2018-03-24T06:30:53.929Z,16.30
2018-03-24T06:33:21.432Z,12.90
2018-03-24T06:35:49.728Z,10.70
2018-03-24T06:38:18.185Z,9.97
2018-03-24T06:40:45.689Z,9.17
2018-03-24T06:43:13.292Z,10.53
2018-03-24T06:45:42.751Z,9.10
2018-03-24T06:48:11.025Z,16.87
2018-03-24T06:50:38.578Z,9.77
2018-03-24T06:53:07.014Z,12.77
2018-03-24T06:55:34.510Z,12.63
2018-03-24T06:58:02.054Z,16.93
2018-03-24T07:00:29.589Z,16.73
2018-03-24T07:02:57.189Z,13.47
2018-03-24T07:05:24.725Z,14.47
2018-03-24T07:07:52.266Z,11.03
2018-03-24T07:10:21.464Z,11.87
2018-03-24T07:12:49.754Z,13.93
2018-03-24T07:15:17.237Z,13.23
2018-03-24T07:17:44.868Z,12.93
2018-03-24T07:20:12.409Z,11.67
2018-03-24T07:22:39.975Z,13.23
2018-03-24T07:25:07.599Z,14.10
2018-03-24T07:27:36.061Z,13.27
2018-03-24T07:30:03.620Z,19.50
2018-03-24T07:32:31.968Z,16.60
2018-03-24T07:34:59.576Z,17.13
2018-03-24T07:37:27.095Z,10.13
2018-03-24T07:39:54.849Z,16.50
2018-03-24T07:42:22.392Z,14.43
2018-03-24T07:44:49.877Z,11.50
2018-03-24T07:47:17.399Z,10.60
2018-03-24T07:49:44.877Z,10.03
2018-03-24T07:52:12.468Z,8.57
2018-03-24T07:54:40.098Z,13.47
2018-03-24T07:57:07.668Z,12.50
2018-03-24T07:59:35.238Z,12.33
2018-03-24T08:02:03.724Z,13.13
2018-03-24T08:04:33.125Z,7.93
2018-03-24T08:07:00.644Z,9.43
2018-03-24T08:09:28.216Z,8.23
2018-03-24T08:11:57.426Z,7.73
2018-03-24T08:14:25.779Z,7.57
2018-03-24T08:16:53.415Z,8.73
2018-03-24T08:19:21.836Z,8.67
2018-03-24T08:21:49.451Z,7.47
2018-03-24T08:24:16.987Z,9.10
2018-03-24T08:26:45.263Z,9.97
2018-03-24T08:29:13.566Z,11.57
2018-03-24T08:34:41.910Z,10.50
2018-03-24T08:37:09.422Z,11.27
2018-03-24T08:39:37.846Z,9.40
2018-03-24T08:42:05.365Z,8.47
2018-03-24T08:44:32.939Z,8.87
2018-03-24T08:47:01.287Z,9.40
2018-03-24T08:49:29.599Z,9.87
2018-03-24T08:51:57.086Z,10.43
2018-03-24T08:54:24.607Z,11.77
2018-03-24T08:56:52.867Z,9.13
2018-03-24T08:59:20.484Z,9.33
2018-03-24T09:01:48.047Z,9.30
2018-03-24T09:04:15.551Z,10.43
2018-03-24T09:06:43.093Z,10.77
2018-03-24T09:09:12.547Z,9.17
2018-03-24T09:11:40.122Z,9.23
2018-03-24T09:14:08.386Z,10.97
2018-03-24T09:16:35.968Z,9.53
2018-03-24T09:19:04.280Z,9.77
2018-03-24T09:21:33.745Z,10.83
2018-03-24T09:24:01.240Z,12.00
2018-03-24T09:26:29.677Z,11.40
2018-03-24T09:28:57.207Z,10.20
2018-03-24T09:31:24.856Z,11.20
2018-03-24T09:33:52.446Z,9.37
2018-03-24T09:36:20.882Z,13.80
2018-03-24T09:38:50.063Z,11.77
2018-03-24T09:41:18.518Z,12.23
2018-03-24T09:43:46.102Z,11.07
2018-03-24T09:46:14.519Z,10.23
2018-03-24T09:48:42.809Z,10.40
2018-03-24T09:51:11.064Z,8.07
2018-03-24T09:53:38.591Z,9.30
2018-03-24T09:56:06.110Z,11.23
2018-03-24T09:58:35.286Z,12.97
2018-03-24T10:01:02.859Z,7.27
2018-03-24T10:03:30.395Z,10.43
2018-03-24T10:05:58.631Z,6.93
2018-03-24T10:08:27.058Z,9.40
2018-03-24T10:10:55.549Z,6.90
2018-03-24T10:13:23.056Z,7.03
2018-03-24T10:15:51.342Z,8.03
2018-03-24T10:18:18.913Z,17.93
2018-03-24T10:24:25.272Z,13.43
2018-03-24T10:26:52.783Z,7.17
2018-03-24T10:29:21.115Z,9.93
2018-03-24T10:31:49.777Z,6.57
2018-03-24T10:34:17.481Z,7.10
2018-03-24T10:36:44.981Z,7.07
2018-03-24T10:39:12.566Z,8.07
2018-03-24T10:41:40.087Z,9.53
2018-03-24T10:44:07.690Z,9.07
2018-03-24T10:46:35.210Z,7.50
2018-03-24T10:49:02.711Z,8.80
2018-03-24T10:51:31.175Z,6.60
2018-03-24T10:53:59.687Z,8.07
2018-03-24T10:56:27.203Z,7.57
2018-03-24T10:58:54.691Z,8.03
2018-03-24T11:01:25.804Z,8.00
2018-03-24T11:03:53.369Z,8.47
2018-03-24T11:06:20.863Z,6.90
2018-03-24T11:08:48.382Z,14.57
2018-03-24T11:11:16.865Z,8.10
2018-03-24T11:13:46.189Z,7.73
2018-03-24T11:16:14.691Z,8.70
2018-03-24T11:18:42.250Z,8.00
2018-03-24T11:21:11.788Z,7.63
2018-03-24T11:23:39.337Z,6.87
2018-03-24T11:26:07.849Z,7.20
2018-03-24T11:28:36.847Z,9.13
2018-03-24T11:31:06.325Z,9.10
2018-03-24T11:33:33.873Z,8.27
2018-03-24T11:36:01.368Z,8.43
2018-03-24T11:38:29.912Z,7.83
2018-03-24T11:40:57.424Z,8.53
2018-03-24T11:43:26.582Z,8.20
2018-03-24T11:45:54.698Z,7.10
2018-03-24T11:48:22.229Z,7.53
2018-03-24T11:50:49.727Z,7.70
2018-03-24T11:53:17.264Z,10.37
2018-03-24T11:55:44.775Z,7.73
2018-03-24T11:58:12.295Z,8.23
2018-03-24T12:00:39.851Z,6.77
2018-03-24T12:03:08.355Z,7.10
2018-03-24T12:05:35.912Z,7.00
2018-03-24T12:08:03.434Z,6.73
2018-03-24T12:10:31.724Z,6.67
2018-03-24T12:12:59.247Z,6.80
2018-03-24T12:15:26.785Z,7.03
2018-03-24T12:17:54.328Z,8.73
2018-03-24T12:20:21.852Z,7.70
2018-03-24T12:22:50.325Z,7.63
2018-03-24T12:25:18.890Z,7.10
2018-03-24T12:27:46.452Z,6.17
2018-03-24T12:30:13.963Z,7.13
2018-03-24T12:32:42.228Z,7.60
2018-03-24T12:35:09.869Z,6.47
2018-03-24T12:37:38.359Z,7.63
2018-03-24T12:40:05.916Z,7.77
2018-03-24T12:42:53.184Z,7.93
2018-03-24T12:45:21.469Z,6.83
2018-03-24T12:50:55.889Z,6.50
2018-03-24T12:53:24.196Z,7.63
2018-03-24T12:55:52.637Z,6.60
2018-03-24T12:58:20.180Z,6.40
2018-03-24T13:00:47.761Z,7.73
2018-03-24T13:03:15.327Z,8.97
2018-03-24T13:05:42.827Z,7.73
2018-03-24T13:08:10.398Z,7.83
2018-03-24T13:10:37.970Z,8.30
2018-03-24T13:13:05.508Z,7.87
2018-03-24T13:15:33.807Z,8.13
2018-03-24T13:18:01.324Z,6.77
2018-03-24T13:20:28.863Z,9.27
2018-03-24T13:22:56.389Z,8.63
2018-03-24T13:25:23.887Z,10.30
2018-03-24T13:27:52.378Z,7.83
2018-03-24T13:30:20.907Z,8.07
2018-03-24T13:32:49.268Z,8.23
2018-03-24T13:35:16.846Z,9.80
2018-03-24T13:37:44.475Z,7.17
2018-03-24T13:40:12.001Z,8.13
2018-03-24T13:42:40.309Z,7.60
2018-03-24T13:45:07.847Z,9.40
2018-03-24T13:47:38.018Z,7.77
2018-03-24T13:50:06.191Z,7.57
2018-03-24T13:52:34.647Z,6.87
2018-03-24T13:55:02.188Z,7.77
2018-03-24T13:57:29.722Z,9.93
2018-03-24T13:59:57.249Z,7.80
2018-03-24T14:02:25.702Z,9.27
2018-03-24T14:04:53.996Z,8.70
2018-03-24T14:07:23.327Z,7.80
2018-03-24T14:09:50.934Z,11.10
2018-03-24T14:12:18.423Z,10.17
2018-03-24T14:14:47.697Z,8.17
2018-03-24T14:17:16.110Z,9.83
2018-03-24T14:19:45.323Z,8.57
2018-03-24T14:22:12.865Z,8.23
2018-03-24T14:24:41.293Z,8.07
2018-03-24T14:27:10.744Z,8.43
2018-03-24T14:29:38.285Z,10.10
2018-03-24T14:32:06.734Z,9.40
2018-03-24T14:34:34.276Z,7.13
2018-03-24T14:37:04.260Z,8.07
2018-03-24T14:39:31.875Z,9.60
2018-03-24T14:41:59.356Z,9.37
2018-03-24T14:44:27.793Z,9.43
2018-03-24T14:46:55.378Z,8.83
2018-03-24T14:49:22.957Z,9.27
2018-03-24T14:51:51.408Z,8.60
2018-03-24T14:54:18.943Z,9.90
2018-03-24T14:57:07.187Z,8.93
2018-03-24T15:02:14.000Z,9.07
2018-03-24T15:04:42.515Z,8.10
2018-03-24T15:07:10.035Z,8.93
2018-03-24T15:09:37.545Z,8.73
2018-03-24T15:12:06.112Z,10.50
2018-03-24T15:14:34.412Z,10.10
2018-03-24T15:17:02.699Z,9.63
2018-03-24T15:19:30.242Z,11.00
2018-03-24T15:21:57.854Z,10.00
2018-03-24T15:24:25.414Z,11.60
2018-03-24T15:26:53.019Z,9.17
2018-03-24T15:29:32.466Z,9.40
2018-03-24T15:32:11.687Z,8.93
2018-03-24T15:34:50.944Z,9.47
2018-03-24T15:37:20.468Z,13.20
2018-03-24T15:39:48.074Z,10.30
2018-03-24T15:42:17.627Z,10.73
2018-03-24T15:45:04.569Z,9.83
2018-03-24T15:47:32.113Z,10.67
2018-03-24T15:50:02.377Z,11.07
2018-03-24T15:55:09.810Z,9.90
2018-03-24T15:57:38.348Z,12.37
2018-03-24T16:00:05.900Z,11.57
2018-03-24T16:02:34.197Z,13.90
2018-03-24T16:05:01.750Z,11.43
2018-03-24T16:07:29.316Z,13.73
2018-03-24T16:09:57.834Z,13.07
2018-03-24T16:12:25.368Z,12.13
2018-03-24T16:14:52.944Z,11.70
2018-03-24T16:17:20.476Z,13.20
2018-03-24T16:19:50.687Z,11.60
2018-03-24T16:22:18.270Z,10.93
2018-03-24T16:24:48.490Z,11.70
2018-03-24T16:27:16.787Z,12.23
2018-03-24T16:29:44.334Z,11.73
2018-03-24T16:32:13.522Z,10.93
2018-03-24T16:34:41.182Z,11.97
2018-03-24T16:37:08.713Z,10.77
2018-03-24T16:39:37.152Z,15.63
2018-03-24T16:42:05.433Z,14.63
2018-03-24T16:44:33.846Z,11.63
2018-03-24T16:47:01.395Z,12.90
2018-03-24T16:49:28.939Z,14.90
2018-03-24T16:51:56.448Z,14.20
2018-03-24T16:54:23.970Z,13.53
2018-03-24T16:56:52.444Z,13.37
2018-03-24T16:59:19.948Z,13.20
2018-03-24T17:01:48.369Z,14.23
2018-03-24T17:04:15.907Z,15.10
2018-03-24T17:06:43.451Z,16.77
2018-03-24T17:09:11.099Z,17.20
2018-03-24T17:11:39.440Z,17.47
2018-03-24T17:14:06.914Z,15.10
2018-03-24T17:16:53.196Z,13.80
2018-03-24T17:19:22.621Z,19.67
2018-03-24T17:21:51.159Z,14.27
2018-03-24T17:26:57.890Z,13.60
2018-03-24T17:29:27.369Z,18.67
2018-03-24T17:31:55.826Z,15.27
2018-03-24T17:34:24.181Z,16.63
2018-03-24T17:36:52.656Z,18.97
2018-03-24T17:39:20.194Z,24.10
2018-03-24T17:41:47.703Z,16.63
2018-03-24T17:44:15.201Z,15.10
2018-03-24T17:46:43.739Z,16.30
2018-03-24T17:49:11.281Z,16.17
2018-03-24T17:51:38.808Z,16.83
2018-03-24T17:54:07.415Z,17.07
2018-03-24T17:56:34.916Z,16.83
2018-03-24T17:59:03.382Z,19.10
2018-03-24T18:01:32.356Z,17.60
2018-03-24T18:03:59.888Z,18.57
2018-03-24T18:06:29.055Z,17.20
2018-03-24T18:08:56.586Z,18.47
2018-03-24T18:11:24.169Z,19.23
2018-03-24T18:13:51.679Z,19.53
2018-03-24T18:16:19.199Z,17.83
2018-03-24T18:18:46.724Z,16.23
2018-03-24T18:21:14.979Z,16.97
2018-03-24T18:23:43.427Z,18.87
2018-03-24T18:26:10.934Z,16.00
2018-03-24T18:28:39.374Z,17.93
2018-03-24T18:31:06.905Z,16.60
2018-03-24T18:33:34.475Z,16.50
2018-03-24T18:36:01.971Z,18.70
2018-03-24T18:38:29.458Z,18.07
2018-03-24T18:40:57.910Z,16.83
2018-03-24T18:43:25.453Z,15.67
2018-03-24T18:45:52.980Z,18.33
2018-03-24T18:48:21.415Z,15.93
2018-03-24T18:50:49.867Z,17.13
2018-03-24T18:53:18.192Z,18.10
2018-03-24T18:55:46.596Z,17.43
2018-03-24T18:58:14.163Z,15.93
2018-03-24T19:00:41.696Z,15.10
2018-03-24T19:03:10.166Z,17.90
2018-03-24T19:05:38.602Z,16.37
2018-03-24T19:08:06.119Z,19.50
2018-03-24T19:10:33.643Z,15.67
2018-03-24T19:13:01.187Z,16.17
2018-03-24T19:15:28.949Z,15.03
2018-03-24T19:17:57.391Z,14.87
2018-03-24T19:20:24.921Z,14.97
2018-03-24T19:22:52.417Z,15.53
2018-03-24T19:25:20.821Z,15.50
2018-03-24T19:27:48.306Z,13.90
2018-03-24T19:30:15.822Z,16.13
2018-03-24T19:32:44.129Z,15.57
2018-03-24T19:35:11.627Z,14.83
2018-03-24T19:37:39.303Z,14.97
2018-03-24T19:40:08.738Z,14.43
2018-03-24T19:42:37.060Z,18.37
2018-03-24T19:45:06.540Z,17.57
2018-03-24T19:47:34.116Z,20.10
2018-03-24T19:50:01.648Z,17.73
2018-03-24T19:52:30.000Z,15.93
2018-03-24T19:54:57.477Z,14.70
2018-03-24T19:57:24.975Z,13.90
2018-03-24T19:59:52.582Z,15.47
2018-03-24T20:02:20.130Z,15.07
2018-03-24T20:04:47.674Z,15.47
2018-03-24T20:07:16.126Z,13.20
2018-03-24T20:09:43.761Z,17.73
2018-03-24T20:12:11.267Z,17.60
2018-03-24T20:14:38.797Z,16.67
2018-03-24T20:17:07.257Z,14.03
2018-03-24T20:19:34.803Z,14.13
2018-03-24T20:22:02.304Z,14.83
2018-03-24T20:24:30.723Z,15.50
2018-03-24T20:26:58.308Z,18.67
2018-03-24T20:29:26.592Z,24.43
2018-03-24T20:31:54.137Z,22.97
2018-03-24T20:34:21.645Z,17.57
2018-03-24T20:36:49.189Z,17.63
2018-03-24T20:39:16.695Z,16.60
2018-03-24T20:41:44.196Z,16.00
2018-03-24T20:44:14.438Z,17.13
2018-03-24T20:46:42.012Z,14.63
2018-03-24T20:49:09.562Z,18.33
2018-03-24T20:51:37.912Z,17.43
2018-03-24T20:54:05.701Z,16.97
2018-03-24T20:56:33.217Z,15.90
2018-03-24T20:59:00.777Z,16.13
2018-03-24T21:01:30.291Z,16.80
2018-03-24T21:03:57.856Z,18.37
2018-03-24T21:06:25.605Z,15.90
2018-03-24T21:08:53.134Z,19.50
2018-03-24T21:11:20.764Z,18.70
2018-03-24T21:13:48.370Z,19.33
2018-03-24T21:16:16.656Z,17.00
2018-03-24T21:18:44.945Z,20.50
2018-03-24T21:21:13.357Z,18.80
2018-03-24T21:23:41.182Z,20.63
2018-03-24T21:26:08.738Z,17.73
2018-03-24T21:28:37.154Z,18.10
2018-03-24T21:31:04.702Z,16.33
2018-03-24T21:33:32.970Z,15.27
2018-03-24T21:36:00.565Z,15.47
2018-03-24T21:38:28.968Z,16.43
2018-03-24T21:40:56.484Z,18.93
2018-03-24T21:43:24.944Z,17.77
2018-03-24T21:45:53.441Z,17.07
2018-03-24T21:48:21.906Z,19.07
2018-03-24T21:50:50.381Z,19.30
2018-03-24T21:53:18.919Z,21.97
2018-03-24T21:55:47.367Z,22.93
2018-03-24T21:58:14.899Z,20.27
2018-03-24T22:00:42.441Z,18.00
2018-03-24T22:03:10.739Z,19.13
2018-03-24T22:05:57.126Z,20.13
2018-03-24T22:11:03.850Z,19.73
2018-03-24T22:13:31.678Z,17.00
2018-03-24T22:15:59.947Z,18.23
2018-03-24T22:18:27.473Z,17.17
2018-03-24T22:20:54.975Z,17.53
2018-03-24T22:23:22.605Z,18.90
2018-03-24T22:25:50.171Z,22.77
2018-03-24T22:28:17.725Z,24.57
2018-03-24T22:30:45.324Z,18.30
2018-03-24T22:33:12.874Z,21.83
2018-03-24T22:35:40.384Z,18.47
2018-03-24T22:38:08.648Z,19.23
2018-03-24T22:40:37.535Z,22.53
2018-03-24T22:43:05.973Z,17.70
2018-03-24T22:45:33.511Z,23.30
2018-03-24T22:48:01.945Z,21.20
2018-03-24T22:50:30.157Z,19.73
2018-03-24T22:52:58.579Z,25.47
2018-03-24T22:55:26.109Z,19.00
2018-03-24T22:57:56.343Z,18.80
2018-03-24T23:00:25.520Z,21.10
2018-03-24T23:02:53.021Z,19.43
2018-03-24T23:05:20.548Z,19.43
2018-03-24T23:07:48.119Z,21.60
2018-03-24T23:10:15.630Z,17.40
2018-03-24T23:12:43.286Z,20.67
2018-03-24T23:15:10.890Z,20.40
2018-03-24T23:17:38.403Z,20.33
2018-03-24T23:20:06.673Z,19.83
2018-03-24T23:22:34.959Z,21.47
2018-03-24T23:25:03.269Z,24.33
2018-03-24T23:27:31.934Z,20.30
2018-03-24T23:30:00.220Z,19.30
2018-03-24T23:32:28.608Z,19.97
2018-03-24T23:34:56.118Z,19.93
2018-03-24T23:37:23.640Z,23.97
2018-03-24T23:39:51.146Z,19.50
2018-03-24T23:42:19.623Z,18.60
2018-03-24T23:44:48.160Z,20.70
2018-03-24T23:47:16.461Z,19.13
2018-03-24T23:49:43.958Z,18.53
2018-03-24T23:52:11.500Z,21.23
2018-03-24T23:54:39.012Z,21.37
2018-03-24T23:57:07.564Z,22.30
2018-03-24T23:59:35.152Z,21.47
